createdAt,value
2023-12-03T00:01:17.959Z,6.15
2023-12-03T00:03:44.937Z,5.15
2023-12-03T00:06:13.006Z,5.70
2023-12-03T00:08:50.435Z,5.65
2023-12-03T00:11:19.143Z,4.85
2023-12-03T00:13:47.048Z,6.13
2023-12-03T00:16:17.718Z,7.80
2023-12-03T00:18:47.405Z,7.53
2023-12-03T00:21:15.813Z,6.47
2023-12-03T00:23:45.080Z,5.40
2023-12-03T00:26:13.964Z,6.05
2023-12-03T00:28:47.711Z,5.53
2023-12-03T00:31:15.848Z,5.80
2023-12-03T00:33:51.285Z,6.63
2023-12-03T00:36:19.350Z,5.50
2023-12-03T00:38:48.759Z,5.68
2023-12-03T00:41:16.713Z,4.60
2023-12-03T00:43:44.755Z,5.57
2023-12-03T00:46:12.986Z,4.45
2023-12-03T00:48:41.247Z,5.35
2023-12-03T00:51:09.293Z,5.28
2023-12-03T00:53:37.567Z,5.75
2023-12-03T00:56:07.622Z,4.50
2023-12-03T00:58:35.703Z,5.93
2023-12-03T01:01:03.976Z,4.88
2023-12-03T01:03:32.497Z,5.30
2023-12-03T01:06:00.449Z,4.43
2023-12-03T01:08:28.419Z,5.65
2023-12-03T01:10:56.834Z,4.88
2023-12-03T01:13:26.167Z,4.55
2023-12-03T01:15:54.361Z,4.40
2023-12-03T01:18:22.481Z,4.68
2023-12-03T01:20:50.640Z,4.95
2023-12-03T01:23:18.583Z,4.45
2023-12-03T01:25:46.775Z,5.18
2023-12-03T01:28:16.816Z,5.47
2023-12-03T01:30:46.328Z,4.85
2023-12-03T01:33:14.606Z,6.32
2023-12-03T01:35:42.602Z,6.15
2023-12-03T01:38:10.538Z,5.32
2023-12-03T01:40:38.617Z,6.03
2023-12-03T01:43:07.085Z,5.07
2023-12-03T01:45:35.121Z,5.20
2023-12-03T01:48:05.247Z,5.78
2023-12-03T01:50:33.412Z,4.70
2023-12-03T01:53:01.630Z,5.57
2023-12-03T01:55:31.556Z,4.63
2023-12-03T01:57:59.939Z,5.85
2023-12-03T02:00:27.922Z,5.68
2023-12-03T02:02:57.927Z,5.45
2023-12-03T02:05:31.515Z,5.07
2023-12-03T02:07:59.522Z,5.13
2023-12-03T02:10:27.875Z,6.00
2023-12-03T02:12:55.842Z,5.28
2023-12-03T02:15:23.861Z,5.22
2023-12-03T02:17:55.266Z,5.22
2023-12-03T02:20:23.251Z,5.38
2023-12-03T02:23:01.991Z,5.68
2023-12-03T02:25:31.594Z,6.15
2023-12-03T02:27:59.419Z,6.85
2023-12-03T02:30:27.339Z,4.80
2023-12-03T02:32:55.317Z,5.75
2023-12-03T02:35:23.266Z,4.90
2023-12-03T02:37:51.154Z,6.07
2023-12-03T02:40:20.964Z,5.75
2023-12-03T02:42:49.058Z,6.25
2023-12-03T02:45:17.482Z,6.88
2023-12-03T02:47:46.832Z,6.50
2023-12-03T02:50:15.148Z,5.63
2023-12-03T02:52:46.294Z,5.03
2023-12-03T02:55:15.056Z,5.30
2023-12-03T02:57:44.608Z,5.45
2023-12-03T03:00:13.109Z,5.00
2023-12-03T03:02:41.248Z,5.80
2023-12-03T03:05:09.570Z,4.95
2023-12-03T03:07:37.450Z,4.03
2023-12-03T03:10:05.757Z,4.40
2023-12-03T03:12:33.766Z,5.38
2023-12-03T03:15:03.866Z,5.15
2023-12-03T03:17:32.100Z,4.93
2023-12-03T03:20:00.026Z,4.90
2023-12-03T03:22:27.994Z,5.32
2023-12-03T03:24:55.908Z,5.32
2023-12-03T03:27:23.926Z,4.75
2023-12-03T03:29:51.839Z,4.70
2023-12-03T03:32:21.160Z,5.50
2023-12-03T03:34:51.304Z,5.35
2023-12-03T03:37:19.236Z,5.05
2023-12-03T03:39:47.215Z,5.22
2023-12-03T03:42:15.814Z,4.68
2023-12-03T03:44:44.121Z,5.50
2023-12-03T03:47:13.319Z,4.57
2023-12-03T03:49:43.847Z,4.80
2023-12-03T03:52:12.129Z,4.50
2023-12-03T03:54:41.505Z,4.70
2023-12-03T03:57:10.120Z,5.43
2023-12-03T03:59:38.075Z,4.32
2023-12-03T04:02:06.304Z,5.07
2023-12-03T04:04:34.493Z,4.68
2023-12-03T04:07:04.432Z,3.92
2023-12-03T04:09:32.635Z,4.10
2023-12-03T04:12:00.622Z,3.88
2023-12-03T04:14:28.752Z,4.65
2023-12-03T04:16:59.158Z,4.25
2023-12-03T04:19:27.373Z,4.60
2023-12-03T04:21:56.635Z,4.72
2023-12-03T04:24:26.018Z,4.80
2023-12-03T04:26:53.984Z,3.35
2023-12-03T04:29:22.004Z,3.30
2023-12-03T04:31:50.405Z,4.15
2023-12-03T04:34:18.466Z,4.18
2023-12-03T04:36:46.818Z,4.00
2023-12-03T04:39:15.394Z,4.85
2023-12-03T04:41:44.714Z,3.90
2023-12-03T04:44:12.688Z,4.78
2023-12-03T04:46:43.060Z,4.85
2023-12-03T04:49:12.003Z,3.72
2023-12-03T04:51:39.952Z,4.47
2023-12-03T04:54:07.964Z,4.28
2023-12-03T04:56:35.937Z,4.75
2023-12-03T04:59:05.921Z,5.07
2023-12-03T05:01:33.956Z,5.07
2023-12-03T05:04:01.926Z,4.28
2023-12-03T05:06:29.903Z,4.57
2023-12-03T05:08:57.909Z,3.90
2023-12-03T05:11:25.889Z,4.65
2023-12-03T05:13:54.144Z,5.07
2023-12-03T05:16:23.532Z,4.25
2023-12-03T05:18:52.173Z,6.13
2023-12-03T05:21:20.144Z,4.15
2023-12-03T05:23:48.141Z,4.35
2023-12-03T05:26:16.241Z,4.75
2023-12-03T05:28:44.207Z,4.68
2023-12-03T05:31:12.201Z,5.95
2023-12-03T05:33:43.284Z,4.28
2023-12-03T05:36:21.110Z,5.47
2023-12-03T05:38:49.089Z,4.95
2023-12-03T05:41:18.466Z,4.50
2023-12-03T05:43:46.571Z,3.60
2023-12-03T05:46:14.930Z,5.38
2023-12-03T05:48:44.503Z,5.07
2023-12-03T05:51:11.980Z,4.65
2023-12-03T05:53:40.080Z,4.38
2023-12-03T05:56:08.930Z,4.78
2023-12-03T05:58:39.368Z,3.80
2023-12-03T06:01:07.626Z,4.25
2023-12-03T06:03:35.532Z,4.30
2023-12-03T06:06:05.674Z,4.32
2023-12-03T06:08:34.081Z,5.03
2023-12-03T06:11:02.016Z,4.90
2023-12-03T06:13:29.912Z,5.03
2023-12-03T06:15:57.834Z,4.72
2023-12-03T06:18:25.892Z,5.03
2023-12-03T06:20:54.075Z,4.72
2023-12-03T06:23:23.466Z,4.45
2023-12-03T06:25:51.462Z,3.90
2023-12-03T06:28:19.449Z,5.10
2023-12-03T06:30:48.737Z,5.13
2023-12-03T06:33:23.359Z,4.38
2023-12-03T06:35:52.367Z,3.92
2023-12-03T06:38:20.276Z,4.70
2023-12-03T06:40:49.601Z,4.43
2023-12-03T06:43:17.736Z,5.05
2023-12-03T06:45:46.012Z,4.22
2023-12-03T06:48:14.438Z,4.15
2023-12-03T06:50:45.550Z,4.68
2023-12-03T06:53:14.474Z,5.05
2023-12-03T06:55:42.369Z,4.97
2023-12-03T06:58:11.583Z,4.03
2023-12-03T07:00:39.630Z,5.13
2023-12-03T07:03:07.736Z,3.75
2023-12-03T07:05:35.690Z,4.55
2023-12-03T07:08:03.656Z,4.28
2023-12-03T07:10:31.774Z,4.43
2023-12-03T07:12:59.774Z,4.25
2023-12-03T07:15:29.205Z,6.40
2023-12-03T07:17:58.674Z,4.47
2023-12-03T07:20:27.033Z,4.28
2023-12-03T07:22:56.815Z,4.10
2023-12-03T07:25:24.708Z,4.70
2023-12-03T07:27:53.152Z,4.00
2023-12-03T07:30:21.094Z,4.35
2023-12-03T07:32:50.519Z,4.15
2023-12-03T07:35:18.656Z,4.18
2023-12-03T07:37:46.631Z,4.95
2023-12-03T07:40:14.529Z,4.70
2023-12-03T07:42:42.481Z,5.22
2023-12-03T07:45:10.884Z,4.45
2023-12-03T07:47:38.838Z,4.75
2023-12-03T07:50:09.229Z,4.72
2023-12-03T07:52:37.151Z,3.70
2023-12-03T07:55:05.481Z,4.60
2023-12-03T07:57:33.396Z,4.70
2023-12-03T08:00:02.733Z,4.90
2023-12-03T08:02:40.241Z,4.03
2023-12-03T08:05:10.136Z,3.63
2023-12-03T08:07:38.123Z,5.32
2023-12-03T08:10:07.075Z,4.53
2023-12-03T08:12:35.222Z,4.93
2023-12-03T08:15:03.200Z,4.10
2023-12-03T08:17:31.103Z,4.47
2023-12-03T08:19:59.369Z,5.47
2023-12-03T08:22:28.848Z,7.35
2023-12-03T08:24:56.850Z,4.57
2023-12-03T08:27:24.754Z,4.43
2023-12-03T08:29:52.885Z,5.55
2023-12-03T08:32:22.159Z,4.95
2023-12-03T08:34:50.170Z,4.20
2023-12-03T08:37:18.275Z,4.32
2023-12-03T08:39:48.507Z,5.65
2023-12-03T08:42:17.606Z,3.45
2023-12-03T08:44:45.589Z,3.88
2023-12-03T08:47:14.296Z,5.38
2023-12-03T08:49:42.769Z,4.28
2023-12-03T08:52:11.630Z,5.15
2023-12-03T08:54:39.554Z,3.50
2023-12-03T08:57:10.448Z,3.97
2023-12-03T08:59:39.187Z,4.57
2023-12-03T09:02:09.922Z,4.55
2023-12-03T09:04:39.130Z,4.45
2023-12-03T09:07:07.116Z,4.82
2023-12-03T09:09:35.014Z,4.00
2023-12-03T09:12:03.044Z,4.53
2023-12-03T09:14:34.062Z,4.30
2023-12-03T09:17:05.226Z,4.88
2023-12-03T09:19:33.313Z,4.35
2023-12-03T09:22:01.264Z,5.13
2023-12-03T09:24:29.477Z,4.90
2023-12-03T09:26:57.368Z,6.68
2023-12-03T09:29:25.185Z,4.53
2023-12-03T09:31:58.220Z,3.80
2023-12-03T09:34:26.306Z,4.57
2023-12-03T09:36:54.268Z,4.28
2023-12-03T09:39:22.296Z,4.53
2023-12-03T09:41:50.738Z,4.32
2023-12-03T09:44:28.608Z,3.72
2023-12-03T09:47:01.521Z,4.07
2023-12-03T09:49:31.278Z,4.55
2023-12-03T09:52:00.851Z,4.25
2023-12-03T09:54:29.370Z,4.03
2023-12-03T09:56:58.566Z,4.00
2023-12-03T09:59:27.029Z,3.88
2023-12-03T10:01:57.056Z,3.80
2023-12-03T10:04:28.773Z,4.25
2023-12-03T10:06:59.285Z,4.35
2023-12-03T10:09:28.546Z,4.50
2023-12-03T10:11:57.949Z,4.55
2023-12-03T10:14:26.227Z,4.10
2023-12-03T10:16:54.978Z,4.40
2023-12-03T10:19:24.001Z,3.15
2023-12-03T10:21:53.892Z,3.25
2023-12-03T10:24:22.038Z,3.45
2023-12-03T10:26:53.740Z,4.00
2023-12-03T10:29:24.189Z,4.00
2023-12-03T10:31:53.022Z,4.20
2023-12-03T10:34:22.030Z,3.65
2023-12-03T10:36:51.305Z,4.10
2023-12-03T10:39:21.026Z,4.43
2023-12-03T10:41:50.594Z,4.75
2023-12-03T10:44:19.415Z,4.38
2023-12-03T10:46:48.127Z,4.72
2023-12-03T10:49:17.365Z,4.57
2023-12-03T10:51:47.675Z,4.80
2023-12-03T10:54:16.515Z,3.88
2023-12-03T10:56:56.454Z,4.70
2023-12-03T10:59:26.275Z,5.35
2023-12-03T11:01:56.405Z,5.60
2023-12-03T11:04:29.547Z,4.93
2023-12-03T11:06:59.791Z,4.05
2023-12-03T11:09:28.003Z,3.83
2023-12-03T11:11:57.541Z,4.43
2023-12-03T11:14:25.601Z,4.22
2023-12-03T11:16:55.986Z,4.32
2023-12-03T11:19:26.247Z,5.07
2023-12-03T11:22:00.865Z,3.63
2023-12-03T11:24:47.058Z,4.20
2023-12-03T11:27:16.663Z,4.47
2023-12-03T11:29:47.988Z,4.80
2023-12-03T11:32:16.892Z,4.53
2023-12-03T11:34:45.195Z,4.32
2023-12-03T11:37:13.988Z,4.00
2023-12-03T11:39:44.253Z,4.43
2023-12-03T11:42:13.524Z,4.53
2023-12-03T11:44:43.328Z,4.25
2023-12-03T11:47:13.332Z,3.83
2023-12-03T11:49:42.461Z,4.22
2023-12-03T11:52:10.830Z,4.35
2023-12-03T11:54:40.040Z,3.90
2023-12-03T11:57:15.260Z,4.03
2023-12-03T11:59:45.761Z,3.88
2023-12-03T12:02:14.761Z,2.90
2023-12-03T12:04:42.666Z,4.88
2023-12-03T12:07:14.500Z,4.57
2023-12-03T12:09:48.845Z,4.53
2023-12-03T12:12:17.282Z,3.90
2023-12-03T12:14:47.952Z,4.57
2023-12-03T12:17:16.246Z,4.15
2023-12-03T12:19:47.883Z,3.63
2023-12-03T12:22:15.955Z,4.40
2023-12-03T12:24:43.953Z,5.15
2023-12-03T12:27:11.987Z,4.10
2023-12-03T12:29:40.205Z,4.10
2023-12-03T12:32:09.740Z,4.57
2023-12-03T12:34:37.944Z,3.67
2023-12-03T12:37:06.451Z,4.38
2023-12-03T12:39:34.954Z,4.57
2023-12-03T12:42:03.536Z,3.88
2023-12-03T12:44:46.443Z,4.15
2023-12-03T12:47:20.011Z,3.63
2023-12-03T12:49:57.090Z,4.20
2023-12-03T12:52:25.962Z,4.00
2023-12-03T12:54:56.373Z,4.85
2023-12-03T12:57:27.429Z,4.05
2023-12-03T12:59:56.092Z,3.97
2023-12-03T13:02:26.777Z,4.72
2023-12-03T13:04:57.542Z,5.10
2023-12-03T13:07:25.566Z,3.35
2023-12-03T13:09:56.160Z,4.25
2023-12-03T13:12:30.496Z,4.45
2023-12-03T13:14:59.101Z,4.50
2023-12-03T13:17:35.761Z,4.93
2023-12-03T13:20:05.772Z,3.53
2023-12-03T13:22:34.579Z,3.58
2023-12-03T13:25:03.158Z,3.45
2023-12-03T13:27:31.171Z,4.05
2023-12-03T13:29:59.544Z,4.20
2023-12-03T13:32:29.112Z,4.18
2023-12-03T13:34:57.386Z,3.97
2023-12-03T13:37:25.827Z,4.20
2023-12-03T13:39:53.844Z,4.53
2023-12-03T13:42:22.492Z,4.43
2023-12-03T13:44:50.432Z,3.78
2023-12-03T13:47:18.730Z,4.13
2023-12-03T13:49:48.652Z,5.15
2023-12-03T13:52:16.643Z,3.80
2023-12-03T13:54:44.592Z,3.90
2023-12-03T13:57:12.593Z,3.80
2023-12-03T13:59:40.750Z,3.65
2023-12-03T14:02:10.581Z,3.90
2023-12-03T14:04:38.762Z,4.65
2023-12-03T14:07:09.168Z,3.97
2023-12-03T14:09:37.293Z,4.57
2023-12-03T14:12:06.013Z,4.15
2023-12-03T14:14:34.766Z,3.95
2023-12-03T14:17:04.335Z,4.75
2023-12-03T14:19:33.356Z,3.67
2023-12-03T14:22:01.433Z,4.38
2023-12-03T14:24:30.827Z,4.63
2023-12-03T14:26:58.999Z,3.60
2023-12-03T14:29:26.959Z,4.25
2023-12-03T14:31:54.872Z,4.07
2023-12-03T14:34:23.443Z,3.88
2023-12-03T14:36:51.906Z,4.15
2023-12-03T14:39:20.089Z,4.05
2023-12-03T14:41:49.695Z,5.38
2023-12-03T14:44:18.557Z,5.13
2023-12-03T14:46:46.493Z,4.90
2023-12-03T14:49:15.053Z,4.22
2023-12-03T14:51:43.028Z,3.40
2023-12-03T14:54:11.065Z,3.53
2023-12-03T14:56:40.587Z,3.78
2023-12-03T14:59:12.367Z,3.75
2023-12-03T15:01:40.543Z,3.85
2023-12-03T15:04:16.130Z,4.00
2023-12-03T15:06:45.457Z,4.57
2023-12-03T15:09:13.411Z,4.05
2023-12-03T15:11:44.875Z,4.53
2023-12-03T15:14:14.449Z,4.20
2023-12-03T15:16:42.322Z,5.03
2023-12-03T15:19:10.478Z,4.35
2023-12-03T15:21:39.688Z,4.60
2023-12-03T15:24:09.619Z,4.28
2023-12-03T15:26:37.696Z,4.22
2023-12-03T15:29:05.639Z,4.43
2023-12-03T15:31:35.121Z,4.95
2023-12-03T15:34:03.603Z,4.03
2023-12-03T15:36:34.206Z,3.97
2023-12-03T15:39:02.242Z,4.72
2023-12-03T15:41:30.338Z,3.40
2023-12-03T15:43:58.207Z,3.97
2023-12-03T15:46:26.667Z,4.18
2023-12-03T15:49:08.996Z,3.97
2023-12-03T15:51:41.014Z,5.38
2023-12-03T15:54:09.050Z,4.45
2023-12-03T15:56:36.969Z,4.57
2023-12-03T15:59:04.972Z,4.57
2023-12-03T16:01:32.966Z,3.42
2023-12-03T16:04:02.489Z,4.10
2023-12-03T16:06:30.546Z,3.60
2023-12-03T16:09:00.581Z,4.97
2023-12-03T16:11:29.412Z,3.90
2023-12-03T16:13:57.568Z,3.70
2023-12-03T16:16:25.820Z,4.25
2023-12-03T16:18:54.167Z,3.70
2023-12-03T16:21:23.738Z,4.32
2023-12-03T16:23:52.528Z,4.78
2023-12-03T16:26:20.546Z,4.18
2023-12-03T16:28:48.948Z,4.32
2023-12-03T16:31:16.924Z,4.32
2023-12-03T16:33:46.435Z,4.68
2023-12-03T16:36:14.516Z,3.72
2023-12-03T16:38:44.239Z,3.45
2023-12-03T16:41:13.754Z,5.15
2023-12-03T16:43:42.036Z,4.88
2023-12-03T16:46:17.752Z,4.47
2023-12-03T16:48:45.753Z,4.00
2023-12-03T16:51:13.962Z,4.20
2023-12-03T16:53:42.731Z,4.43
2023-12-03T16:56:12.475Z,4.47
2023-12-03T16:58:40.447Z,4.57
2023-12-03T17:01:10.878Z,5.60
2023-12-03T17:03:39.064Z,5.57
2023-12-03T17:06:07.218Z,5.57
2023-12-03T17:08:35.589Z,6.50
2023-12-03T17:11:05.579Z,4.28
2023-12-03T17:13:34.990Z,4.57
2023-12-03T17:16:03.612Z,4.07
2023-12-03T17:18:31.902Z,5.00
2023-12-03T17:21:07.291Z,4.85
2023-12-03T17:23:35.380Z,5.38
2023-12-03T17:26:04.897Z,6.60
2023-12-03T17:28:37.350Z,5.38
2023-12-03T17:31:05.776Z,3.97
2023-12-03T17:33:34.046Z,4.85
2023-12-03T17:36:02.667Z,5.70
2023-12-03T17:38:31.264Z,4.78
2023-12-03T17:40:59.679Z,4.47
2023-12-03T17:43:30.820Z,4.28
2023-12-03T17:46:00.442Z,5.70
2023-12-03T17:48:28.948Z,4.13
2023-12-03T17:50:57.217Z,4.75
2023-12-03T17:53:25.267Z,4.65
2023-12-03T17:55:53.535Z,3.80
2023-12-03T17:58:21.523Z,4.75
2023-12-03T18:00:51.593Z,4.35
2023-12-03T18:03:24.681Z,5.30
2023-12-03T18:05:55.580Z,5.22
2023-12-03T18:08:23.689Z,5.68
2023-12-03T18:10:51.800Z,5.35
2023-12-03T18:13:20.289Z,6.97
2023-12-03T18:15:48.798Z,4.80
2023-12-03T18:18:17.886Z,4.07
2023-12-03T18:20:49.889Z,4.82
2023-12-03T18:23:24.514Z,4.70
2023-12-03T18:25:52.675Z,4.97
2023-12-03T18:28:20.995Z,4.55
2023-12-03T18:30:49.593Z,5.32
2023-12-03T18:33:20.495Z,4.57
2023-12-03T18:35:52.209Z,7.05
2023-12-03T18:38:20.737Z,4.70
2023-12-03T18:40:54.969Z,4.63
2023-12-03T18:43:23.421Z,4.95
2023-12-03T18:45:52.176Z,5.25
2023-12-03T18:48:20.217Z,4.75
2023-12-03T18:50:54.852Z,4.95
2023-12-03T18:53:24.467Z,4.80
2023-12-03T18:55:53.307Z,4.78
2023-12-03T18:58:21.528Z,5.47
2023-12-03T19:00:49.844Z,5.30
2023-12-03T19:03:17.825Z,4.95
2023-12-03T19:05:46.628Z,4.95
2023-12-03T19:08:14.952Z,4.97
2023-12-03T19:10:45.701Z,5.70
2023-12-03T19:13:17.165Z,5.13
2023-12-03T19:15:46.128Z,4.85
2023-12-03T19:18:14.273Z,4.75
2023-12-03T19:20:42.357Z,4.40
2023-12-03T19:23:12.839Z,6.03
2023-12-03T19:25:40.732Z,5.38
2023-12-03T19:28:16.594Z,6.05
2023-12-03T19:30:44.987Z,5.72
2023-12-03T19:33:13.228Z,5.05
2023-12-03T19:35:41.490Z,5.88
2023-12-03T19:38:11.643Z,5.47
2023-12-03T19:40:39.680Z,5.55
2023-12-03T19:43:07.644Z,5.68
2023-12-03T19:45:37.240Z,5.60
2023-12-03T19:48:05.792Z,5.78
2023-12-03T19:50:35.560Z,6.10
2023-12-03T19:53:05.421Z,5.82
2023-12-03T19:55:33.407Z,4.85
2023-12-03T19:58:01.582Z,5.63
2023-12-03T20:00:29.672Z,5.60
2023-12-03T20:02:59.140Z,4.85
2023-12-03T20:05:27.344Z,5.50
2023-12-03T20:07:55.445Z,5.45
2023-12-03T20:10:24.017Z,5.38
2023-12-03T20:12:52.774Z,5.85
2023-12-03T20:15:25.312Z,5.53
2023-12-03T20:17:56.786Z,5.30
2023-12-03T20:20:26.402Z,5.45
2023-12-03T20:22:54.431Z,6.80
2023-12-03T20:25:23.032Z,6.03
2023-12-03T20:27:51.012Z,5.63
2023-12-03T20:30:19.045Z,5.75
2023-12-03T20:32:48.284Z,4.93
2023-12-03T20:35:16.610Z,5.60
2023-12-03T20:37:48.283Z,5.43
2023-12-03T20:40:16.973Z,6.93
2023-12-03T20:42:44.936Z,5.93
2023-12-03T20:45:14.573Z,5.30
2023-12-03T20:47:42.600Z,6.28
2023-12-03T20:50:10.990Z,11.80
2023-12-03T20:52:39.008Z,6.00
2023-12-03T20:55:09.270Z,6.28
2023-12-03T20:57:37.295Z,6.28
2023-12-03T21:00:07.403Z,6.43
2023-12-03T21:02:35.291Z,6.50
2023-12-03T21:05:03.413Z,6.45
2023-12-03T21:07:31.811Z,5.80
2023-12-03T21:09:59.974Z,5.93
2023-12-03T21:12:31.724Z,5.95
2023-12-03T21:14:59.647Z,6.38
2023-12-03T21:17:28.006Z,5.85
2023-12-03T21:19:56.019Z,6.20
2023-12-03T21:22:24.357Z,6.53
2023-12-03T21:24:55.480Z,6.15
2023-12-03T21:27:23.342Z,6.10
2023-12-03T21:29:53.097Z,6.57
2023-12-03T21:32:21.154Z,5.95
2023-12-03T21:34:56.627Z,6.40
2023-12-03T21:37:39.592Z,5.10
2023-12-03T21:40:08.613Z,6.05
2023-12-03T21:42:36.544Z,6.07
2023-12-03T21:45:06.373Z,5.88
2023-12-03T21:47:34.330Z,6.60
2023-12-03T21:50:02.498Z,6.25
2023-12-03T21:52:30.424Z,6.80
2023-12-03T21:54:59.553Z,7.55
2023-12-03T21:57:28.539Z,6.55
2023-12-03T21:59:56.729Z,5.90
2023-12-03T22:02:25.997Z,5.85
2023-12-03T22:04:54.509Z,6.82
2023-12-03T22:07:22.584Z,6.65
2023-12-03T22:09:50.783Z,6.13
2023-12-03T22:12:18.745Z,6.78
2023-12-03T22:14:46.711Z,7.00
2023-12-03T22:17:14.739Z,6.57
2023-12-03T22:19:44.326Z,8.55
2023-12-03T22:22:12.324Z,5.85
2023-12-03T22:24:40.348Z,6.57
2023-12-03T22:27:08.261Z,7.20
2023-12-03T22:29:44.721Z,5.68
2023-12-03T22:32:18.154Z,5.70
2023-12-03T22:34:47.616Z,6.85
2023-12-03T22:37:15.629Z,7.95
2023-12-03T22:39:43.892Z,5.65
2023-12-03T22:42:11.851Z,5.55
2023-12-03T22:44:39.698Z,6.53
2023-12-03T22:47:07.641Z,7.13
2023-12-03T22:49:35.631Z,6.57
2023-12-03T22:52:05.485Z,6.50
2023-12-03T22:54:33.470Z,6.63
2023-12-03T22:57:01.683Z,6.60
2023-12-03T22:59:29.725Z,7.78
2023-12-03T23:01:58.808Z,6.32
2023-12-03T23:04:26.894Z,7.03
2023-12-03T23:06:55.613Z,6.25
2023-12-03T23:09:25.025Z,6.10
2023-12-03T23:11:53.353Z,6.45
2023-12-03T23:14:21.197Z,6.50
2023-12-03T23:16:49.250Z,6.22
2023-12-03T23:19:17.648Z,7.18
2023-12-03T23:21:46.559Z,5.97
2023-12-03T23:24:14.566Z,6.97
2023-12-03T23:26:44.081Z,6.25
2023-12-03T23:29:12.105Z,6.07
2023-12-03T23:31:40.198Z,5.50
2023-12-03T23:34:08.209Z,5.82
2023-12-03T23:36:36.197Z,5.97
2023-12-03T23:39:04.268Z,5.95
2023-12-03T23:41:32.225Z,6.25
2023-12-03T23:44:01.588Z,6.35
2023-12-03T23:46:29.603Z,7.55
2023-12-03T23:48:59.136Z,8.13
2023-12-03T23:51:41.026Z,5.82
2023-12-03T23:54:09.088Z,5.53
2023-12-03T23:56:37.075Z,5.38
2023-12-03T23:59:06.384Z,6.88
